sensor_id;sensor_type;location;lat;lon;timestamp;P1;durP1;ratioP1;P2;durP2;ratioP2
10687;SDS011;5392;42.688;23.298;2023-11-21T00:02:17;42.95;;;26.73;;
10687;SDS011;5392;42.688;23.298;2023-11-21T00:04:44;45.58;;;26.90;;
10687;SDS011;5392;42.688;23.298;2023-11-21T00:07:11;48.03;;;28.73;;
10687;SDS011;5392;42.688;23.298;2023-11-21T00:09:38;41.28;;;26.88;;
10687;SDS011;5392;42.688;23.298;2023-11-21T00:12:04;40.00;;;25.77;;
10687;SDS011;5392;42.688;23.298;2023-11-21T00:14:32;42.45;;;26.83;;
10687;SDS011;5392;42.688;23.298;2023-11-21T00:16:59;42.63;;;26.05;;
10687;SDS011;5392;42.688;23.298;2023-11-21T00:19:26;46.03;;;27.13;;
10687;SDS011;5392;42.688;23.298;2023-11-21T00:21:52;43.15;;;26.05;;
10687;SDS011;5392;42.688;23.298;2023-11-21T00:24:19;47.50;;;29.92;;
10687;SDS011;5392;42.688;23.298;2023-11-21T00:26:46;52.42;;;28.70;;
10687;SDS011;5392;42.688;23.298;2023-11-21T00:29:15;45.10;;;28.25;;
10687;SDS011;5392;42.688;23.298;2023-11-21T00:31:44;46.25;;;28.40;;
10687;SDS011;5392;42.688;23.298;2023-11-21T00:34:11;44.15;;;28.15;;
10687;SDS011;5392;42.688;23.298;2023-11-21T00:36:38;42.88;;;27.25;;
10687;SDS011;5392;42.688;23.298;2023-11-21T00:39:04;45.72;;;27.33;;
10687;SDS011;5392;42.688;23.298;2023-11-21T00:41:32;47.53;;;27.13;;
10687;SDS011;5392;42.688;23.298;2023-11-21T00:43:58;47.33;;;27.55;;
10687;SDS011;5392;42.688;23.298;2023-11-21T00:46:25;38.22;;;24.85;;
10687;SDS011;5392;42.688;23.298;2023-11-21T00:48:54;38.13;;;23.42;;
10687;SDS011;5392;42.688;23.298;2023-11-21T00:51:21;32.83;;;21.08;;
10687;SDS011;5392;42.688;23.298;2023-11-21T00:53:48;36.75;;;23.23;;
10687;SDS011;5392;42.688;23.298;2023-11-21T00:56:15;34.05;;;21.25;;
10687;SDS011;5392;42.688;23.298;2023-11-21T00:58:42;43.25;;;27.70;;
10687;SDS011;5392;42.688;23.298;2023-11-21T01:01:10;43.53;;;26.90;;
10687;SDS011;5392;42.688;23.298;2023-11-21T01:03:36;38.00;;;23.65;;
10687;SDS011;5392;42.688;23.298;2023-11-21T01:06:03;35.83;;;23.50;;
10687;SDS011;5392;42.688;23.298;2023-11-21T01:08:31;43.20;;;24.92;;
10687;SDS011;5392;42.688;23.298;2023-11-21T01:10:57;44.88;;;24.83;;
10687;SDS011;5392;42.688;23.298;2023-11-21T01:13:24;43.67;;;25.58;;
10687;SDS011;5392;42.688;23.298;2023-11-21T01:15:55;42.30;;;25.65;;
10687;SDS011;5392;42.688;23.298;2023-11-21T01:18:22;42.78;;;26.77;;
10687;SDS011;5392;42.688;23.298;2023-11-21T01:20:48;47.78;;;28.00;;
10687;SDS011;5392;42.688;23.298;2023-11-21T01:23:15;40.58;;;26.05;;
10687;SDS011;5392;42.688;23.298;2023-11-21T01:25:42;44.53;;;26.48;;
10687;SDS011;5392;42.688;23.298;2023-11-21T01:28:08;43.58;;;26.17;;
10687;SDS011;5392;42.688;23.298;2023-11-21T01:30:35;42.40;;;27.05;;
10687;SDS011;5392;42.688;23.298;2023-11-21T01:33:01;44.63;;;28.85;;
10687;SDS011;5392;42.688;23.298;2023-11-21T01:35:29;48.65;;;28.00;;
10687;SDS011;5392;42.688;23.298;2023-11-21T01:37:56;43.95;;;27.35;;
10687;SDS011;5392;42.688;23.298;2023-11-21T01:40:23;53.97;;;29.02;;
10687;SDS011;5392;42.688;23.298;2023-11-21T01:42:52;44.63;;;29.02;;
10687;SDS011;5392;42.688;23.298;2023-11-21T01:45:19;42.67;;;27.15;;
10687;SDS011;5392;42.688;23.298;2023-11-21T01:47:46;49.60;;;27.92;;
10687;SDS011;5392;42.688;23.298;2023-11-21T01:50:14;48.92;;;30.15;;
10687;SDS011;5392;42.688;23.298;2023-11-21T01:52:42;50.95;;;28.92;;
10687;SDS011;5392;42.688;23.298;2023-11-21T01:55:10;51.38;;;30.23;;
10687;SDS011;5392;42.688;23.298;2023-11-21T01:57:37;47.35;;;29.27;;
10687;SDS011;5392;42.688;23.298;2023-11-21T02:00:06;47.03;;;28.52;;
10687;SDS011;5392;42.688;23.298;2023-11-21T02:02:43;44.22;;;27.63;;
10687;SDS011;5392;42.688;23.298;2023-11-21T02:05:10;50.33;;;29.30;;
10687;SDS011;5392;42.688;23.298;2023-11-21T02:07:41;51.17;;;30.75;;
10687;SDS011;5392;42.688;23.298;2023-11-21T02:10:09;42.58;;;26.20;;
10687;SDS011;5392;42.688;23.298;2023-11-21T02:12:36;40.85;;;27.65;;
10687;SDS011;5392;42.688;23.298;2023-11-21T02:15:02;46.65;;;30.98;;
10687;SDS011;5392;42.688;23.298;2023-11-21T02:17:31;51.03;;;31.20;;
10687;SDS011;5392;42.688;23.298;2023-11-21T02:19:59;50.72;;;30.42;;
10687;SDS011;5392;42.688;23.298;2023-11-21T02:22:26;47.22;;;27.95;;
10687;SDS011;5392;42.688;23.298;2023-11-21T02:24:57;48.78;;;26.48;;
10687;SDS011;5392;42.688;23.298;2023-11-21T02:27:23;49.05;;;28.23;;
10687;SDS011;5392;42.688;23.298;2023-11-21T02:29:50;44.95;;;30.17;;
10687;SDS011;5392;42.688;23.298;2023-11-21T02:32:17;45.95;;;28.52;;
10687;SDS011;5392;42.688;23.298;2023-11-21T02:34:45;46.67;;;28.25;;
10687;SDS011;5392;42.688;23.298;2023-11-21T02:37:13;41.45;;;25.25;;
10687;SDS011;5392;42.688;23.298;2023-11-21T02:39:39;37.08;;;23.00;;
10687;SDS011;5392;42.688;23.298;2023-11-21T02:42:06;42.13;;;25.58;;
10687;SDS011;5392;42.688;23.298;2023-11-21T02:44:33;43.28;;;26.75;;
10687;SDS011;5392;42.688;23.298;2023-11-21T02:46:59;43.55;;;27.63;;
10687;SDS011;5392;42.688;23.298;2023-11-21T02:49:26;43.03;;;27.10;;
10687;SDS011;5392;42.688;23.298;2023-11-21T02:51:57;40.80;;;26.58;;
10687;SDS011;5392;42.688;23.298;2023-11-21T02:54:23;47.72;;;28.10;;
10687;SDS011;5392;42.688;23.298;2023-11-21T02:56:50;46.50;;;29.48;;
10687;SDS011;5392;42.688;23.298;2023-11-21T02:59:16;47.88;;;28.25;;
10687;SDS011;5392;42.688;23.298;2023-11-21T03:01:43;42.35;;;26.92;;
10687;SDS011;5392;42.688;23.298;2023-11-21T03:04:10;75.15;;;49.78;;
10687;SDS011;5392;42.688;23.298;2023-11-21T03:06:37;50.53;;;32.75;;
10687;SDS011;5392;42.688;23.298;2023-11-21T03:09:04;42.05;;;27.52;;
10687;SDS011;5392;42.688;23.298;2023-11-21T03:11:32;42.15;;;26.63;;
10687;SDS011;5392;42.688;23.298;2023-11-21T03:13:59;43.92;;;27.73;;
10687;SDS011;5392;42.688;23.298;2023-11-21T03:16:26;48.10;;;27.95;;
10687;SDS011;5392;42.688;23.298;2023-11-21T03:18:52;44.78;;;28.33;;
10687;SDS011;5392;42.688;23.298;2023-11-21T03:21:19;43.22;;;27.58;;
10687;SDS011;5392;42.688;23.298;2023-11-21T03:23:46;43.88;;;25.88;;
10687;SDS011;5392;42.688;23.298;2023-11-21T03:26:13;39.10;;;25.75;;
10687;SDS011;5392;42.688;23.298;2023-11-21T03:28:40;37.22;;;24.77;;
10687;SDS011;5392;42.688;23.298;2023-11-21T03:31:06;39.67;;;25.42;;
10687;SDS011;5392;42.688;23.298;2023-11-21T03:33:35;40.97;;;25.10;;
10687;SDS011;5392;42.688;23.298;2023-11-21T03:36:01;39.67;;;24.85;;
10687;SDS011;5392;42.688;23.298;2023-11-21T03:38:30;37.78;;;25.83;;
10687;SDS011;5392;42.688;23.298;2023-11-21T03:40:56;39.65;;;25.63;;
10687;SDS011;5392;42.688;23.298;2023-11-21T03:43:23;39.55;;;26.13;;
10687;SDS011;5392;42.688;23.298;2023-11-21T03:45:51;37.97;;;24.42;;
10687;SDS011;5392;42.688;23.298;2023-11-21T03:48:17;45.22;;;27.33;;
10687;SDS011;5392;42.688;23.298;2023-11-21T03:50:44;37.67;;;26.50;;
10687;SDS011;5392;42.688;23.298;2023-11-21T03:53:10;40.50;;;26.60;;
10687;SDS011;5392;42.688;23.298;2023-11-21T03:55:37;32.35;;;20.13;;
10687;SDS011;5392;42.688;23.298;2023-11-21T03:58:04;30.67;;;18.45;;
10687;SDS011;5392;42.688;23.298;2023-11-21T04:00:30;27.10;;;17.85;;
10687;SDS011;5392;42.688;23.298;2023-11-21T04:02:57;26.67;;;17.73;;
10687;SDS011;5392;42.688;23.298;2023-11-21T04:05:24;27.30;;;16.40;;
10687;SDS011;5392;42.688;23.298;2023-11-21T04:07:51;26.67;;;17.92;;
10687;SDS011;5392;42.688;23.298;2023-11-21T04:10:17;34.95;;;17.45;;
10687;SDS011;5392;42.688;23.298;2023-11-21T04:12:44;29.95;;;18.27;;
10687;SDS011;5392;42.688;23.298;2023-11-21T04:15:11;29.60;;;17.23;;
10687;SDS011;5392;42.688;23.298;2023-11-21T04:17:40;27.55;;;17.00;;
10687;SDS011;5392;42.688;23.298;2023-11-21T04:20:07;27.63;;;16.77;;
10687;SDS011;5392;42.688;23.298;2023-11-21T04:22:36;23.50;;;14.93;;
10687;SDS011;5392;42.688;23.298;2023-11-21T04:25:03;21.80;;;14.13;;
10687;SDS011;5392;42.688;23.298;2023-11-21T04:27:29;21.67;;;14.10;;
10687;SDS011;5392;42.688;23.298;2023-11-21T04:29:56;24.60;;;14.25;;
10687;SDS011;5392;42.688;23.298;2023-11-21T04:32:23;22.13;;;14.52;;
10687;SDS011;5392;42.688;23.298;2023-11-21T04:34:49;20.77;;;13.88;;
10687;SDS011;5392;42.688;23.298;2023-11-21T04:37:16;19.30;;;13.68;;
10687;SDS011;5392;42.688;23.298;2023-11-21T04:39:43;17.48;;;13.05;;
10687;SDS011;5392;42.688;23.298;2023-11-21T04:42:09;24.08;;;14.75;;
10687;SDS011;5392;42.688;23.298;2023-11-21T04:44:36;30.02;;;17.90;;
10687;SDS011;5392;42.688;23.298;2023-11-21T04:47:03;25.90;;;18.23;;
10687;SDS011;5392;42.688;23.298;2023-11-21T04:49:31;26.52;;;16.95;;
10687;SDS011;5392;42.688;23.298;2023-11-21T04:51:58;20.58;;;15.90;;
10687;SDS011;5392;42.688;23.298;2023-11-21T04:54:24;30.45;;;17.20;;
10687;SDS011;5392;42.688;23.298;2023-11-21T04:56:54;24.00;;;15.90;;
10687;SDS011;5392;42.688;23.298;2023-11-21T04:59:20;25.30;;;16.25;;
10687;SDS011;5392;42.688;23.298;2023-11-21T05:01:47;27.42;;;17.52;;
10687;SDS011;5392;42.688;23.298;2023-11-21T05:04:13;20.33;;;14.73;;
10687;SDS011;5392;42.688;23.298;2023-11-21T05:06:41;26.25;;;15.63;;
10687;SDS011;5392;42.688;23.298;2023-11-21T05:09:07;28.95;;;15.90;;
10687;SDS011;5392;42.688;23.298;2023-11-21T05:11:38;32.40;;;20.48;;
10687;SDS011;5392;42.688;23.298;2023-11-21T05:14:05;36.90;;;20.73;;
10687;SDS011;5392;42.688;23.298;2023-11-21T05:16:33;35.05;;;20.15;;
10687;SDS011;5392;42.688;23.298;2023-11-21T05:19:00;31.35;;;17.88;;
10687;SDS011;5392;42.688;23.298;2023-11-21T05:21:27;28.02;;;17.77;;
10687;SDS011;5392;42.688;23.298;2023-11-21T05:23:54;38.03;;;20.73;;
10687;SDS011;5392;42.688;23.298;2023-11-21T05:26:21;43.78;;;21.42;;
10687;SDS011;5392;42.688;23.298;2023-11-21T05:28:48;49.90;;;24.05;;
10687;SDS011;5392;42.688;23.298;2023-11-21T05:31:14;37.20;;;21.83;;
10687;SDS011;5392;42.688;23.298;2023-11-21T05:33:42;38.65;;;19.85;;
10687;SDS011;5392;42.688;23.298;2023-11-21T05:36:09;25.70;;;16.38;;
10687;SDS011;5392;42.688;23.298;2023-11-21T05:38:36;28.50;;;18.40;;
10687;SDS011;5392;42.688;23.298;2023-11-21T05:41:03;31.85;;;19.67;;
10687;SDS011;5392;42.688;23.298;2023-11-21T05:43:30;54.15;;;29.27;;
10687;SDS011;5392;42.688;23.298;2023-11-21T05:45:58;39.72;;;24.00;;
10687;SDS011;5392;42.688;23.298;2023-11-21T05:48:25;33.65;;;21.65;;
10687;SDS011;5392;42.688;23.298;2023-11-21T05:50:52;49.75;;;23.67;;
10687;SDS011;5392;42.688;23.298;2023-11-21T05:53:19;40.75;;;21.23;;
10687;SDS011;5392;42.688;23.298;2023-11-21T05:55:45;44.30;;;24.58;;
10687;SDS011;5392;42.688;23.298;2023-11-21T05:58:12;29.63;;;20.20;;
10687;SDS011;5392;42.688;23.298;2023-11-21T06:00:40;29.85;;;20.00;;
10687;SDS011;5392;42.688;23.298;2023-11-21T06:03:06;49.00;;;24.60;;
10687;SDS011;5392;42.688;23.298;2023-11-21T06:05:34;39.90;;;22.88;;
10687;SDS011;5392;42.688;23.298;2023-11-21T06:08:01;32.55;;;21.70;;
10687;SDS011;5392;42.688;23.298;2023-11-21T06:10:28;41.38;;;24.20;;
10687;SDS011;5392;42.688;23.298;2023-11-21T06:12:55;33.17;;;19.13;;
10687;SDS011;5392;42.688;23.298;2023-11-21T06:15:21;34.53;;;19.77;;
10687;SDS011;5392;42.688;23.298;2023-11-21T06:17:49;36.97;;;21.88;;
10687;SDS011;5392;42.688;23.298;2023-11-21T06:20:20;43.70;;;25.02;;
10687;SDS011;5392;42.688;23.298;2023-11-21T06:22:47;37.78;;;23.10;;
10687;SDS011;5392;42.688;23.298;2023-11-21T06:25:14;37.28;;;21.88;;
10687;SDS011;5392;42.688;23.298;2023-11-21T06:27:42;40.65;;;25.30;;
10687;SDS011;5392;42.688;23.298;2023-11-21T06:30:09;40.83;;;24.75;;
10687;SDS011;5392;42.688;23.298;2023-11-21T06:32:38;61.75;;;26.30;;
10687;SDS011;5392;42.688;23.298;2023-11-21T06:35:05;37.83;;;22.02;;
10687;SDS011;5392;42.688;23.298;2023-11-21T06:37:32;35.45;;;22.13;;
10687;SDS011;5392;42.688;23.298;2023-11-21T06:39:59;37.75;;;20.73;;
10687;SDS011;5392;42.688;23.298;2023-11-21T06:42:26;40.55;;;21.92;;
10687;SDS011;5392;42.688;23.298;2023-11-21T06:44:53;32.22;;;19.02;;
10687;SDS011;5392;42.688;23.298;2023-11-21T06:47:20;42.00;;;21.42;;
10687;SDS011;5392;42.688;23.298;2023-11-21T06:52:33;45.90;;;25.45;;
10687;SDS011;5392;42.688;23.298;2023-11-21T06:55:00;47.05;;;23.98;;
10687;SDS011;5392;42.688;23.298;2023-11-21T06:57:27;43.10;;;22.33;;
10687;SDS011;5392;42.688;23.298;2023-11-21T06:59:53;44.15;;;23.52;;
10687;SDS011;5392;42.688;23.298;2023-11-21T07:02:20;39.17;;;21.02;;
10687;SDS011;5392;42.688;23.298;2023-11-21T07:04:47;37.65;;;21.45;;
10687;SDS011;5392;42.688;23.298;2023-11-21T07:07:13;35.90;;;21.48;;
10687;SDS011;5392;42.688;23.298;2023-11-21T07:09:40;34.22;;;20.02;;
10687;SDS011;5392;42.688;23.298;2023-11-21T07:12:07;35.17;;;21.52;;
10687;SDS011;5392;42.688;23.298;2023-11-21T07:14:34;42.78;;;22.95;;
10687;SDS011;5392;42.688;23.298;2023-11-21T07:17:01;37.08;;;23.65;;
10687;SDS011;5392;42.688;23.298;2023-11-21T07:19:27;39.90;;;22.85;;
10687;SDS011;5392;42.688;23.298;2023-11-21T07:21:54;44.83;;;24.50;;
10687;SDS011;5392;42.688;23.298;2023-11-21T07:24:22;42.00;;;24.15;;
10687;SDS011;5392;42.688;23.298;2023-11-21T07:26:52;40.53;;;24.55;;
10687;SDS011;5392;42.688;23.298;2023-11-21T07:29:26;43.45;;;23.13;;
10687;SDS011;5392;42.688;23.298;2023-11-21T07:31:52;45.92;;;26.33;;
10687;SDS011;5392;42.688;23.298;2023-11-21T07:34:20;44.42;;;24.40;;
10687;SDS011;5392;42.688;23.298;2023-11-21T07:36:47;46.90;;;24.73;;
10687;SDS011;5392;42.688;23.298;2023-11-21T07:39:14;42.05;;;25.38;;
10687;SDS011;5392;42.688;23.298;2023-11-21T07:41:42;44.33;;;24.13;;
10687;SDS011;5392;42.688;23.298;2023-11-21T07:44:18;37.65;;;22.90;;
10687;SDS011;5392;42.688;23.298;2023-11-21T07:46:46;37.50;;;23.00;;
10687;SDS011;5392;42.688;23.298;2023-11-21T07:49:14;38.33;;;22.17;;
10687;SDS011;5392;42.688;23.298;2023-11-21T07:51:47;33.90;;;20.13;;
10687;SDS011;5392;42.688;23.298;2023-11-21T07:54:13;37.75;;;21.55;;
10687;SDS011;5392;42.688;23.298;2023-11-21T07:56:40;31.15;;;20.70;;
10687;SDS011;5392;42.688;23.298;2023-11-21T07:59:07;43.60;;;21.70;;
10687;SDS011;5392;42.688;23.298;2023-11-21T08:01:33;35.22;;;22.08;;
10687;SDS011;5392;42.688;23.298;2023-11-21T08:04:00;30.88;;;19.80;;
10687;SDS011;5392;42.688;23.298;2023-11-21T08:06:30;32.97;;;20.98;;
10687;SDS011;5392;42.688;23.298;2023-11-21T08:08:57;32.42;;;18.83;;
10687;SDS011;5392;42.688;23.298;2023-11-21T08:11:24;39.15;;;19.92;;
10687;SDS011;5392;42.688;23.298;2023-11-21T08:13:50;25.17;;;18.20;;
10687;SDS011;5392;42.688;23.298;2023-11-21T08:16:17;27.73;;;18.52;;
10687;SDS011;5392;42.688;23.298;2023-11-21T08:18:43;32.15;;;20.02;;
10687;SDS011;5392;42.688;23.298;2023-11-21T08:21:12;46.63;;;23.80;;
10687;SDS011;5392;42.688;23.298;2023-11-21T08:23:38;37.72;;;22.02;;
10687;SDS011;5392;42.688;23.298;2023-11-21T08:26:05;32.25;;;20.27;;
10687;SDS011;5392;42.688;23.298;2023-11-21T08:28:32;34.70;;;18.23;;
10687;SDS011;5392;42.688;23.298;2023-11-21T08:31:00;24.15;;;18.10;;
10687;SDS011;5392;42.688;23.298;2023-11-21T08:33:26;28.23;;;18.80;;
10687;SDS011;5392;42.688;23.298;2023-11-21T08:35:53;29.27;;;18.13;;
10687;SDS011;5392;42.688;23.298;2023-11-21T08:38:19;29.60;;;16.20;;
10687;SDS011;5392;42.688;23.298;2023-11-21T08:40:46;24.42;;;16.98;;
10687;SDS011;5392;42.688;23.298;2023-11-21T08:43:13;32.28;;;16.75;;
10687;SDS011;5392;42.688;23.298;2023-11-21T08:45:41;24.70;;;14.85;;
10687;SDS011;5392;42.688;23.298;2023-11-21T08:48:07;25.63;;;15.07;;
10687;SDS011;5392;42.688;23.298;2023-11-21T08:50:34;21.15;;;13.40;;
10687;SDS011;5392;42.688;23.298;2023-11-21T08:53:01;26.63;;;16.30;;
10687;SDS011;5392;42.688;23.298;2023-11-21T08:55:28;24.27;;;14.75;;
10687;SDS011;5392;42.688;23.298;2023-11-21T08:57:55;33.88;;;17.00;;
10687;SDS011;5392;42.688;23.298;2023-11-21T09:00:24;26.90;;;15.68;;
10687;SDS011;5392;42.688;23.298;2023-11-21T09:02:51;26.38;;;17.30;;
10687;SDS011;5392;42.688;23.298;2023-11-21T09:05:18;31.50;;;18.90;;
10687;SDS011;5392;42.688;23.298;2023-11-21T09:07:45;25.92;;;18.85;;
10687;SDS011;5392;42.688;23.298;2023-11-21T09:10:12;39.17;;;20.48;;
10687;SDS011;5392;42.688;23.298;2023-11-21T09:12:39;39.45;;;24.45;;
10687;SDS011;5392;42.688;23.298;2023-11-21T09:15:06;36.97;;;24.77;;
10687;SDS011;5392;42.688;23.298;2023-11-21T09:17:33;36.25;;;21.60;;
10687;SDS011;5392;42.688;23.298;2023-11-21T09:20:01;38.45;;;23.67;;
10687;SDS011;5392;42.688;23.298;2023-11-21T09:22:30;40.70;;;24.40;;
10687;SDS011;5392;42.688;23.298;2023-11-21T09:24:58;37.65;;;24.27;;
10687;SDS011;5392;42.688;23.298;2023-11-21T09:27:24;40.47;;;24.80;;
10687;SDS011;5392;42.688;23.298;2023-11-21T09:29:53;39.53;;;24.33;;
10687;SDS011;5392;42.688;23.298;2023-11-21T09:32:20;39.60;;;26.02;;
10687;SDS011;5392;42.688;23.298;2023-11-21T09:34:48;38.30;;;26.05;;
10687;SDS011;5392;42.688;23.298;2023-11-21T09:37:15;38.65;;;23.50;;
10687;SDS011;5392;42.688;23.298;2023-11-21T09:39:42;29.25;;;19.05;;
10687;SDS011;5392;42.688;23.298;2023-11-21T09:42:13;23.55;;;16.40;;
10687;SDS011;5392;42.688;23.298;2023-11-21T09:47:13;28.95;;;16.02;;
10687;SDS011;5392;42.688;23.298;2023-11-21T09:49:40;26.73;;;17.08;;
10687;SDS011;5392;42.688;23.298;2023-11-21T09:52:07;21.13;;;14.85;;
10687;SDS011;5392;42.688;23.298;2023-11-21T09:54:35;24.83;;;14.68;;
10687;SDS011;5392;42.688;23.298;2023-11-21T09:57:02;23.38;;;16.15;;
10687;SDS011;5392;42.688;23.298;2023-11-21T09:59:30;29.00;;;18.20;;
10687;SDS011;5392;42.688;23.298;2023-11-21T10:02:00;29.13;;;18.58;;
10687;SDS011;5392;42.688;23.298;2023-11-21T10:04:27;23.65;;;18.20;;
10687;SDS011;5392;42.688;23.298;2023-11-21T10:06:54;30.17;;;16.92;;
10687;SDS011;5392;42.688;23.298;2023-11-21T10:09:21;26.13;;;17.83;;
10687;SDS011;5392;42.688;23.298;2023-11-21T10:11:49;22.27;;;15.70;;
10687;SDS011;5392;42.688;23.298;2023-11-21T10:14:16;29.33;;;16.30;;
10687;SDS011;5392;42.688;23.298;2023-11-21T10:16:47;24.27;;;15.52;;
10687;SDS011;5392;42.688;23.298;2023-11-21T10:19:15;21.38;;;14.38;;
10687;SDS011;5392;42.688;23.298;2023-11-21T10:21:43;31.02;;;18.33;;
10687;SDS011;5392;42.688;23.298;2023-11-21T10:24:10;29.20;;;20.48;;
10687;SDS011;5392;42.688;23.298;2023-11-21T10:26:39;32.17;;;19.77;;
10687;SDS011;5392;42.688;23.298;2023-11-21T10:29:18;30.77;;;19.25;;
10687;SDS011;5392;42.688;23.298;2023-11-21T10:31:45;25.98;;;16.13;;
10687;SDS011;5392;42.688;23.298;2023-11-21T10:34:16;27.10;;;17.02;;
10687;SDS011;5392;42.688;23.298;2023-11-21T10:36:42;30.48;;;18.70;;
10687;SDS011;5392;42.688;23.298;2023-11-21T10:39:09;30.58;;;20.63;;
10687;SDS011;5392;42.688;23.298;2023-11-21T10:41:39;31.80;;;18.30;;
10687;SDS011;5392;42.688;23.298;2023-11-21T10:44:06;32.75;;;20.55;;
10687;SDS011;5392;42.688;23.298;2023-11-21T10:46:35;30.70;;;19.67;;
10687;SDS011;5392;42.688;23.298;2023-11-21T10:49:02;30.38;;;20.35;;
10687;SDS011;5392;42.688;23.298;2023-11-21T10:51:29;35.75;;;21.65;;
10687;SDS011;5392;42.688;23.298;2023-11-21T10:53:55;32.65;;;20.98;;
10687;SDS011;5392;42.688;23.298;2023-11-21T10:56:23;28.58;;;20.73;;
10687;SDS011;5392;42.688;23.298;2023-11-21T10:58:50;36.70;;;22.52;;
10687;SDS011;5392;42.688;23.298;2023-11-21T11:01:20;32.17;;;20.08;;
10687;SDS011;5392;42.688;23.298;2023-11-21T11:03:47;31.10;;;20.13;;
10687;SDS011;5392;42.688;23.298;2023-11-21T11:06:15;30.70;;;18.83;;
10687;SDS011;5392;42.688;23.298;2023-11-21T11:08:42;34.88;;;19.75;;
10687;SDS011;5392;42.688;23.298;2023-11-21T11:11:09;31.80;;;21.20;;
10687;SDS011;5392;42.688;23.298;2023-11-21T11:13:37;23.50;;;16.48;;
10687;SDS011;5392;42.688;23.298;2023-11-21T11:16:04;27.23;;;16.70;;
10687;SDS011;5392;42.688;23.298;2023-11-21T11:18:34;25.63;;;15.52;;
10687;SDS011;5392;42.688;23.298;2023-11-21T11:21:38;23.67;;;14.63;;
10687;SDS011;5392;42.688;23.298;2023-11-21T11:24:13;23.00;;;15.57;;
10687;SDS011;5392;42.688;23.298;2023-11-21T11:26:47;31.27;;;16.70;;
10687;SDS011;5392;42.688;23.298;2023-11-21T11:29:35;32.97;;;17.63;;
10687;SDS011;5392;42.688;23.298;2023-11-21T11:34:36;29.90;;;17.13;;
10687;SDS011;5392;42.688;23.298;2023-11-21T11:37:06;24.35;;;17.60;;
10687;SDS011;5392;42.688;23.298;2023-11-21T11:39:37;28.20;;;16.27;;
10687;SDS011;5392;42.688;23.298;2023-11-21T11:42:06;19.05;;;13.85;;
10687;SDS011;5392;42.688;23.298;2023-11-21T11:47:15;23.85;;;14.02;;
10687;SDS011;5392;42.688;23.298;2023-11-21T11:52:47;28.13;;;17.58;;
10687;SDS011;5392;42.688;23.298;2023-11-21T11:55:16;23.52;;;16.15;;
10687;SDS011;5392;42.688;23.298;2023-11-21T11:57:47;21.95;;;14.43;;
10687;SDS011;5392;42.688;23.298;2023-11-21T12:00:21;23.17;;;14.40;;
10687;SDS011;5392;42.688;23.298;2023-11-21T12:02:52;23.83;;;15.13;;
10687;SDS011;5392;42.688;23.298;2023-11-21T12:05:20;21.05;;;15.20;;
10687;SDS011;5392;42.688;23.298;2023-11-21T12:07:51;22.38;;;15.57;;
10687;SDS011;5392;42.688;23.298;2023-11-21T12:10:21;19.80;;;14.50;;
10687;SDS011;5392;42.688;23.298;2023-11-21T12:15:19;27.30;;;17.60;;
10687;SDS011;5392;42.688;23.298;2023-11-21T12:17:46;32.80;;;18.55;;
10687;SDS011;5392;42.688;23.298;2023-11-21T12:20:13;24.40;;;19.38;;
10687;SDS011;5392;42.688;23.298;2023-11-21T12:22:44;28.20;;;19.05;;
10687;SDS011;5392;42.688;23.298;2023-11-21T12:25:23;31.73;;;18.83;;
10687;SDS011;5392;42.688;23.298;2023-11-21T12:27:51;25.85;;;18.15;;
10687;SDS011;5392;42.688;23.298;2023-11-21T12:30:22;31.38;;;20.60;;
10687;SDS011;5392;42.688;23.298;2023-11-21T12:32:49;31.33;;;20.23;;
10687;SDS011;5392;42.688;23.298;2023-11-21T12:35:18;25.92;;;20.10;;
10687;SDS011;5392;42.688;23.298;2023-11-21T12:37:48;25.15;;;18.13;;
10687;SDS011;5392;42.688;23.298;2023-11-21T12:40:15;25.05;;;19.10;;
10687;SDS011;5392;42.688;23.298;2023-11-21T12:42:47;27.60;;;19.60;;
10687;SDS011;5392;42.688;23.298;2023-11-21T12:45:21;28.58;;;18.67;;
10687;SDS011;5392;42.688;23.298;2023-11-21T12:47:49;23.30;;;18.95;;
10687;SDS011;5392;42.688;23.298;2023-11-21T12:50:19;24.33;;;18.02;;
10687;SDS011;5392;42.688;23.298;2023-11-21T12:52:50;25.38;;;18.05;;
10687;SDS011;5392;42.688;23.298;2023-11-21T12:55:17;22.75;;;16.38;;
10687;SDS011;5392;42.688;23.298;2023-11-21T12:57:44;21.83;;;16.45;;
10687;SDS011;5392;42.688;23.298;2023-11-21T13:00:11;21.15;;;16.13;;
10687;SDS011;5392;42.688;23.298;2023-11-21T13:02:41;24.50;;;16.75;;
10687;SDS011;5392;42.688;23.298;2023-11-21T13:05:09;30.15;;;17.52;;
10687;SDS011;5392;42.688;23.298;2023-11-21T13:07:48;22.58;;;15.50;;
10687;SDS011;5392;42.688;23.298;2023-11-21T13:10:16;25.50;;;16.13;;
10687;SDS011;5392;42.688;23.298;2023-11-21T13:12:43;20.65;;;14.77;;
10687;SDS011;5392;42.688;23.298;2023-11-21T13:15:14;17.52;;;12.85;;
10687;SDS011;5392;42.688;23.298;2023-11-21T13:17:44;19.77;;;14.55;;
10687;SDS011;5392;42.688;23.298;2023-11-21T13:20:12;21.23;;;14.70;;
10687;SDS011;5392;42.688;23.298;2023-11-21T13:22:47;20.92;;;15.32;;
10687;SDS011;5392;42.688;23.298;2023-11-21T13:25:15;20.48;;;16.05;;
10687;SDS011;5392;42.688;23.298;2023-11-21T13:27:44;25.08;;;16.25;;
10687;SDS011;5392;42.688;23.298;2023-11-21T13:30:12;22.08;;;15.90;;
10687;SDS011;5392;42.688;23.298;2023-11-21T13:32:42;21.52;;;15.32;;
10687;SDS011;5392;42.688;23.298;2023-11-21T13:35:09;22.08;;;16.98;;
10687;SDS011;5392;42.688;23.298;2023-11-21T13:37:41;28.27;;;19.27;;
10687;SDS011;5392;42.688;23.298;2023-11-21T13:40:08;32.63;;;21.67;;
10687;SDS011;5392;42.688;23.298;2023-11-21T13:42:41;35.63;;;24.13;;
10687;SDS011;5392;42.688;23.298;2023-11-21T13:45:08;33.97;;;22.52;;
10687;SDS011;5392;42.688;23.298;2023-11-21T13:47:35;34.85;;;22.83;;
10687;SDS011;5392;42.688;23.298;2023-11-21T13:50:04;36.30;;;26.17;;
10687;SDS011;5392;42.688;23.298;2023-11-21T13:52:40;37.00;;;25.30;;
10687;SDS011;5392;42.688;23.298;2023-11-21T13:55:06;36.47;;;26.08;;
10687;SDS011;5392;42.688;23.298;2023-11-21T13:57:40;35.38;;;26.08;;
10687;SDS011;5392;42.688;23.298;2023-11-21T14:00:09;40.53;;;27.25;;
10687;SDS011;5392;42.688;23.298;2023-11-21T14:02:56;40.80;;;28.13;;
10687;SDS011;5392;42.688;23.298;2023-11-21T14:05:27;38.72;;;25.92;;
10687;SDS011;5392;42.688;23.298;2023-11-21T14:07:55;37.65;;;26.45;;
10687;SDS011;5392;42.688;23.298;2023-11-21T14:10:29;39.90;;;26.25;;
10687;SDS011;5392;42.688;23.298;2023-11-21T14:13:03;38.85;;;28.67;;
10687;SDS011;5392;42.688;23.298;2023-11-21T14:15:32;41.90;;;29.35;;
10687;SDS011;5392;42.688;23.298;2023-11-21T14:18:05;37.10;;;28.35;;
10687;SDS011;5392;42.688;23.298;2023-11-21T14:20:34;44.63;;;28.63;;
10687;SDS011;5392;42.688;23.298;2023-11-21T14:23:05;45.22;;;29.45;;
10687;SDS011;5392;42.688;23.298;2023-11-21T14:25:36;46.47;;;31.13;;
10687;SDS011;5392;42.688;23.298;2023-11-21T14:28:06;41.88;;;30.13;;
10687;SDS011;5392;42.688;23.298;2023-11-21T14:30:32;41.97;;;31.13;;
10687;SDS011;5392;42.688;23.298;2023-11-21T14:33:02;45.47;;;33.85;;
10687;SDS011;5392;42.688;23.298;2023-11-21T14:35:30;51.65;;;38.35;;
10687;SDS011;5392;42.688;23.298;2023-11-21T14:37:59;49.72;;;35.88;;
10687;SDS011;5392;42.688;23.298;2023-11-21T14:40:27;50.80;;;37.50;;
10687;SDS011;5392;42.688;23.298;2023-11-21T14:43:02;54.88;;;36.85;;